CDT,Max TemperatureF,Mean TemperatureF,Min TemperatureF,Max Dew PointF,MeanDew PointF,Min DewpointF,Max Humidity, Mean Humidity, Min Humidity, Max Sea Level PressureIn, Mean Sea Level PressureIn, Min Sea Level PressureIn, Max VisibilityMiles, Mean VisibilityMiles, Min VisibilityMiles, Max Wind SpeedMPH, Mean Wind SpeedMPH, Max Gust SpeedMPH,PrecipitationIn, CloudCover, Events, WindDirDegrees
2011-10-1,82,64,46,36,33,28,66,32,14,30.25,30.17,30.13,10,10,10,9,5,,0.00,0,,46
2011-10-2,80,65,50,39,35,30,66,34,16,30.31,30.22,30.16,10,10,10,8,5,,0.00,0,,88
2011-10-3,82,66,50,41,35,32,62,29,16,30.30,30.22,30.16,10,10,10,9,6,,0.00,0,,123
2011-10-4,86,66,46,41,34,30,66,31,13,30.28,30.21,30.13,10,10,10,8,5,,0.00,0,,107
2011-10-5,86,70,55,45,39,32,54,30,15,30.21,30.13,30.04,10,10,10,12,7,16,0.00,0,,119
2011-10-6,87,74,60,50,45,41,59,37,22,30.12,30.06,30.00,10,10,10,17,9,26,0.00,0,,121
2011-10-7,87,74,60,55,52,46,77,48,24,30.15,30.09,30.04,10,10,10,17,10,25,0.00,0,,122
2011-10-8,87,74,60,57,53,48,82,49,25,30.15,30.08,30.00,10,10,10,18,9,24,0.00,0,,120
2011-10-9,86,74,62,63,55,50,82,53,29,30.10,30.05,29.96,10,10,10,18,11,24,0.00,0,,109
2011-10-10,82,72,62,63,60,57,94,67,42,30.06,30.00,29.94,10,10,10,8,5,16,0.02,2,,107
2011-10-11,84,73,62,63,56,54,88,51,35,29.97,29.88,29.81,10,10,10,9,4,,0.00,1,,177
2011-10-12,73,68,62,63,58,55,94,74,57,29.83,29.80,29.77,10,9,2,10,6,10,0.01,3,,144
2011-10-13,80,68,57,48,40,32,67,36,17,29.93,29.89,29.82,10,10,10,14,9,26,0.00,0,,331
2011-10-14,87,66,44,46,36,30,93,33,13,30.01,29.96,29.91,10,10,10,7,2,,0.00,0,,185
2011-10-15,87,69,51,45,39,34,76,31,15,30.12,30.07,29.99,10,10,10,13,5,20,0.00,0,,102
2011-10-16,87,69,51,54,50,43,82,47,25,30.09,30.04,29.95,10,10,10,13,4,18,0.00,0,,222
2011-10-17,87,69,51,63,54,48,94,59,29,29.96,29.82,29.69,10,10,7,17,6,26,0.00,0,,172
2011-10-18,64,57,50,63,39,30,94,59,28,29.99,29.91,29.73,10,10,3,26,14,32,0.02,4,,334
2011-10-19,62,52,42,32,27,18,66,42,18,30.04,30.00,29.97,10,10,10,23,10,34,0.00,0,,315
2011-10-20,71,56,42,34,27,25,70,30,17,30.14,30.09,30.04,10,10,10,10,4,22,0.00,0,,304
2011-10-21,77,59,41,43,37,30,76,33,24,30.23,30.15,30.10,10,10,10,12,7,17,0.00,1,,110
2011-10-22,84,68,51,61,53,41,83,54,37,30.13,30.03,29.94,10,10,3,13,6,21,0.00,2,,110
2011-10-23,77,66,55,61,56,54,100,80,44,30.12,30.02,29.95,10,9,0,18,6,40,0.01,4,,1
2011-10-24,78,64,51,61,54,50,100,77,41,30.24,30.17,30.12,10,8,0,8,4,,0.00,2,,109
2011-10-25,82,68,53,59,57,50,88,59,42,30.12,30.01,29.95,10,10,10,21,9,26,0.01,0,,176
2011-10-26,82,72,62,64,60,57,94,71,42,29.95,29.90,29.83,10,9,5,18,9,25,0.00,2,,187
2011-10-27,64,58,50,55,48,43,88,77,71,30.09,29.96,29.85,10,10,7,17,8,24,0.00,6,,15
2011-10-28,62,53,42,45,40,32,93,70,32,30.25,30.19,30.10,10,10,7,15,7,20,0.00,3,,359
2011-10-29,68,50,33,41,32,25,100,40,21,30.29,30.19,30.12,10,10,10,9,3,,0.00,0,,205
2011-10-30,68,60,51,37,36,34,58,41,28,30.22,30.16,30.12,10,10,10,10,6,16,0.00,0,,203
2011-10-31,73,56,39,45,39,36,93,39,25,30.23,30.17,30.12,10,10,10,10,3,,0.00,0,,173